»·PEaware :: AAL6960 KSAN-KSEA

AAL6960 :: KSAN-KSEA

FLIGHT INFORMATION

Flight Status: Arrived
Operator:
American Airlines
More flights by this operator :: More flights under this callsign
Pilot: Sergei F. (8485)
Aircraft: BOEING 737-300
(B733)
More flights by this aircraft type
Origin: KSAN San Diego Intl-Lindbergh
United States
Destination: KSEA Seattle-Tacoma Intl
United States
More flights between these airports :: More routes between these airports
Route: + / HYP090013 LMT HAWKZ6
File this flight plan on PilotEdge
Remarks:
Altitude:
(Current/Filed)
360ft
Speed:
(Current/Filed)
300kts
Departed: 01-Dec-17 04:28 PM
Arrived: 01-Dec-17 07:08 PM
Distance/Time
Traveled:
913nm/2:40
Distance/Time
To Go:
Arrived

Flight Plot

Page will automatically refresh every two minutes.

Flight plan parsing failed; only flown route is shown


Map Options




Map Legend


Flown Route
Filed Route
Departure Airport
Arrival Airport
Navaid (VOR, NDB)
Fix

Horizontal Profiles

Position Reports

Time Latitude Longitude Heading Altitude Ground
Speed
01-Dec-17 16:11 32.733124 -117.195685 226 19ft 0kts
01-Dec-17 16:12 32.733124 -117.195685 226 19ft 0kts
01-Dec-17 16:13 32.733124 -117.195685 226 19ft 0kts
01-Dec-17 16:14 32.733124 -117.195685 226 19ft 0kts
01-Dec-17 16:15 32.733124 -117.195685 226 19ft 0kts
01-Dec-17 16:16 32.733124 -117.195685 226 19ft 0kts
01-Dec-17 16:17 32.733124 -117.195685 226 19ft 0kts
01-Dec-17 16:18 32.733124 -117.195685 226 19ft 0kts
01-Dec-17 16:19 32.733124 -117.195685 226 19ft 0kts
01-Dec-17 16:20 32.733124 -117.195685 226 19ft 0kts
01-Dec-17 16:21 32.733348 -117.195409 226 19ft 0kts
01-Dec-17 16:22 32.733684 -117.194991 225 20ft 0kts
01-Dec-17 16:23 32.733791 -117.194859 114 20ft 0kts
01-Dec-17 16:24 32.733791 -117.194859 114 20ft 0kts
01-Dec-17 16:25 32.733791 -117.194859 114 20ft 0kts
01-Dec-17 16:26 32.733529 -117.193805 105 20ft 9kts
01-Dec-17 16:27 32.732537 -117.189738 105 19ft 11kts
01-Dec-17 16:28 32.731659 -117.186127 106 17ft 11kts
01-Dec-17 16:29 32.730806 -117.182562 106 17ft 11kts
01-Dec-17 16:30 32.729941 -117.179040 104 19ft 9kts
01-Dec-17 16:31 32.729476 -117.176929 86 22ft 4kts
01-Dec-17 16:32 32.730253 -117.176080 289 23ft 5kts
01-Dec-17 16:33 32.733776 -117.190477 287 57ft 151kts
01-Dec-17 16:34 32.755945 -117.239037 309 2621ft 179kts
01-Dec-17 16:35 32.783927 -117.289689 301 4563ft 207kts
01-Dec-17 16:36 32.819911 -117.354880 310 6335ft 260kts
01-Dec-17 16:37 32.867639 -117.425010 309 8812ft 283kts
01-Dec-17 16:38 32.918277 -117.502541 308 10573ft 332kts
01-Dec-17 16:39 32.975396 -117.591550 308 13214ft 349kts
01-Dec-17 16:40 33.034596 -117.684047 308 15821ft 359kts
01-Dec-17 16:41 33.101442 -117.768408 318 18531ft 362kts
01-Dec-17 16:42 33.174509 -117.842108 318 20700ft 373kts
01-Dec-17 16:43 33.254947 -117.921385 319 22828ft 383kts
01-Dec-17 16:44 33.337043 -118.001490 319 24750ft 392kts
01-Dec-17 16:45 33.421047 -118.083734 320 26575ft 399kts
01-Dec-17 16:46 33.507173 -118.168276 320 28214ft 407kts
01-Dec-17 16:47 33.595750 -118.247927 334 30303ft 398kts
01-Dec-17 16:48 33.694429 -118.301401 335 31994ft 393kts
01-Dec-17 16:49 33.792958 -118.354166 337 33497ft 388kts
01-Dec-17 16:50 33.889818 -118.402903 337 34692ft 385kts
01-Dec-17 16:51 33.986805 -118.451910 337 35678ft 383kts
01-Dec-17 16:52 34.089852 -118.473420 351 36024ft 391kts
01-Dec-17 16:53 34.193336 -118.488956 351 36020ft 390kts
01-Dec-17 16:54 34.299993 -118.505336 351 36021ft 390kts
01-Dec-17 16:55 34.406181 -118.521697 351 36051ft 390kts
01-Dec-17 16:56 34.512894 -118.538181 351 36058ft 390kts
01-Dec-17 16:57 34.620093 -118.554787 351 36021ft 396kts
01-Dec-17 16:58 34.712212 -118.569095 351 36034ft 408kts
01-Dec-17 16:59 34.844918 -118.589754 351 36083ft 417kts
01-Dec-17 17:00 34.959334 -118.607618 350 36119ft 420kts
01-Dec-17 17:01 35.046396 -118.647945 317 36110ft 408kts
01-Dec-17 17:02 35.129435 -118.734809 317 36077ft 417kts
01-Dec-17 17:03 35.218821 -118.825444 317 36089ft 421kts
01-Dec-17 17:04 35.308210 -118.916416 316 36099ft 421kts
01-Dec-17 17:05 35.396511 -119.006551 316 36101ft 420kts
01-Dec-17 17:06 35.485823 -119.096875 323 36090ft 422kts
01-Dec-17 17:07 35.594260 -119.152623 332 36100ft 429kts
01-Dec-17 17:08 35.703714 -119.207734 332 36106ft 429kts
01-Dec-17 17:09 35.813156 -119.263129 332 36107ft 429kts
01-Dec-17 17:10 35.922428 -119.318603 332 36107ft 429kts
01-Dec-17 17:11 36.031860 -119.374324 332 36112ft 429kts
01-Dec-17 17:12 36.138886 -119.428892 332 36100ft 429kts
01-Dec-17 17:13 36.248476 -119.484943 332 36117ft 429kts
01-Dec-17 17:14 36.357509 -119.540963 332 36117ft 429kts
01-Dec-17 17:15 36.467363 -119.597577 332 36117ft 430kts
01-Dec-17 17:16 36.575473 -119.653467 331 36110ft 429kts
01-Dec-17 17:17 36.682954 -119.709448 332 36116ft 429kts
01-Dec-17 17:18 36.788117 -119.764093 331 35951ft 404kts
01-Dec-17 17:19 36.890989 -119.821105 318 36046ft 408kts
01-Dec-17 17:20 36.975623 -119.914039 314 36085ft 414kts
01-Dec-17 17:21 37.056939 -120.002437 313 36122ft 413kts
01-Dec-17 17:22 37.129054 -120.080778 312 36106ft 408kts
01-Dec-17 17:23 37.203746 -120.162154 312 36116ft 408kts
01-Dec-17 17:24 37.300423 -120.226266 351 36093ft 446kts
01-Dec-17 17:25 37.419755 -120.240169 338 36098ft 432kts
01-Dec-17 17:26 37.535820 -120.274797 338 36113ft 435kts
01-Dec-17 17:27 37.652205 -120.309007 338 36118ft 435kts
01-Dec-17 17:28 37.768318 -120.343249 338 36118ft 435kts
01-Dec-17 17:29 37.884312 -120.377564 338 36118ft 435kts
01-Dec-17 17:30 38.001036 -120.412208 338 36118ft 435kts
01-Dec-17 17:31 38.114923 -120.446108 338 36081ft 436kts
01-Dec-17 17:32 38.230138 -120.480402 338 36119ft 435kts
01-Dec-17 17:33 38.346003 -120.515125 338 36119ft 435kts
01-Dec-17 17:34 38.461956 -120.549990 338 36128ft 435kts
01-Dec-17 17:35 38.578147 -120.585044 338 36146ft 435kts
01-Dec-17 17:36 38.694766 -120.620342 338 36147ft 435kts
01-Dec-17 17:37 38.803138 -120.653264 338 36145ft 435kts
01-Dec-17 17:38 38.917810 -120.688435 337 36149ft 434kts
01-Dec-17 17:39 39.033396 -120.723768 336 36162ft 432kts
01-Dec-17 17:40 39.148026 -120.758841 336 36152ft 432kts
01-Dec-17 17:41 39.263850 -120.794429 336 36158ft 432kts
01-Dec-17 17:42 39.379757 -120.830216 336 36153ft 432kts
01-Dec-17 17:43 39.496317 -120.866329 336 36149ft 432kts
01-Dec-17 17:44 39.611906 -120.902264 336 36145ft 432kts
01-Dec-17 17:45 39.727082 -120.938194 336 36141ft 432kts
01-Dec-17 17:46 39.842615 -120.974358 336 36137ft 432kts
01-Dec-17 17:47 39.957157 -121.010337 336 36133ft 432kts
01-Dec-17 17:48 40.068403 -121.045071 335 36131ft 431kts
01-Dec-17 17:49 40.181535 -121.081503 335 36132ft 432kts
01-Dec-17 17:50 40.297405 -121.118319 335 36129ft 432kts
01-Dec-17 17:51 40.413123 -121.155220 335 36130ft 432kts
01-Dec-17 17:52 40.528767 -121.192232 335 36127ft 432kts
01-Dec-17 17:53 40.642283 -121.228520 336 36127ft 434kts
01-Dec-17 17:54 40.756440 -121.265766 335 36126ft 432kts
01-Dec-17 17:55 40.869719 -121.302379 337 36119ft 434kts
01-Dec-17 17:56 40.984579 -121.340002 335 36109ft 431kts
01-Dec-17 17:57 41.099645 -121.377505 334 36104ft 429kts
01-Dec-17 17:58 41.210124 -121.413452 334 36100ft 428kts
01-Dec-17 17:59 41.324825 -121.451055 334 36102ft 428kts
01-Dec-17 18:00 41.439512 -121.488794 334 36110ft 428kts
01-Dec-17 18:01 41.554338 -121.526721 334 36109ft 428kts
01-Dec-17 18:02 41.668874 -121.564683 333 36107ft 428kts
01-Dec-17 18:03 41.784266 -121.603084 334 36128ft 431kts
01-Dec-17 18:04 41.900000 -121.641726 333 36129ft 431kts
01-Dec-17 18:05 42.014064 -121.680182 333 36129ft 430kts
01-Dec-17 18:06 42.128023 -121.718501 333 36092ft 430kts
01-Dec-17 18:07 42.243493 -121.748088 337 36131ft 437kts
01-Dec-17 18:08 42.362350 -121.774964 337 36130ft 437kts
01-Dec-17 18:09 42.481420 -121.802090 337 36130ft 437kts
01-Dec-17 18:10 42.600282 -121.829264 337 36131ft 437kts
01-Dec-17 18:11 42.719074 -121.856533 337 36128ft 437kts
01-Dec-17 18:12 42.837387 -121.883796 337 36129ft 437kts
01-Dec-17 18:13 42.956467 -121.911360 337 36124ft 439kts
01-Dec-17 18:14 43.076749 -121.939305 337 36130ft 445kts
01-Dec-17 18:15 43.194787 -121.966659 337 36142ft 444kts
01-Dec-17 18:16 43.315319 -121.994871 337 36120ft 444kts
01-Dec-17 18:17 43.435909 -122.023223 337 36098ft 445kts
01-Dec-17 18:18 43.556073 -122.051568 337 36075ft 444kts
01-Dec-17 18:19 43.676341 -122.080076 337 36072ft 445kts
01-Dec-17 18:20 43.797022 -122.108774 337 36074ft 444kts
01-Dec-17 18:21 43.917062 -122.137456 337 36072ft 444kts
01-Dec-17 18:22 43.957903 -122.147241 337 36072ft 444kts
01-Dec-17 18:23 44.145647 -122.192294 337 36069ft 444kts
01-Dec-17 18:24 44.265394 -122.221177 337 36091ft 443kts
01-Dec-17 18:25 44.385080 -122.250241 337 36111ft 445kts
01-Dec-17 18:26 44.503770 -122.279166 337 36128ft 444kts
01-Dec-17 18:27 44.616665 -122.306550 336 36148ft 406kts
01-Dec-17 18:28 44.721082 -122.332444 336 36136ft 406kts
01-Dec-17 18:29 44.826598 -122.358461 336 36139ft 406kts
01-Dec-17 18:30 44.937699 -122.385953 336 36138ft 406kts
01-Dec-17 18:31 45.048583 -122.413546 338 36135ft 412kts
01-Dec-17 18:32 45.158484 -122.440810 339 36141ft 415kts
01-Dec-17 18:33 45.270756 -122.468866 339 36134ft 415kts
01-Dec-17 18:34 45.381365 -122.496677 339 36128ft 415kts
01-Dec-17 18:35 45.489626 -122.524003 339 36129ft 414kts
01-Dec-17 18:36 45.594263 -122.550532 339 35517ft 417kts
01-Dec-17 18:37 45.700296 -122.577500 339 32761ft 419kts
01-Dec-17 18:38 45.810537 -122.606570 340 29790ft 420kts
01-Dec-17 18:39 45.918117 -122.633506 342 26578ft 434kts
01-Dec-17 18:40 46.027942 -122.660809 342 23250ft 430kts
01-Dec-17 18:41 46.126082 -122.683788 344 21486ft 402kts
01-Dec-17 18:42 46.226865 -122.703605 344 19589ft 377kts
01-Dec-17 18:43 46.320914 -122.721955 348 17729ft 362kts
01-Dec-17 18:44 46.403720 -122.725296 351 16064ft 352kts
01-Dec-17 18:45 46.485338 -122.728148 352 14370ft 342kts
01-Dec-17 18:46 46.554580 -122.730625 352 12896ft 334kts
01-Dec-17 18:47 46.618062 -122.732898 352 12087ft 324kts
01-Dec-17 18:48 46.678294 -122.735110 352 12005ft 329kts
01-Dec-17 18:49 46.735805 -122.737203 352 12062ft 300kts
01-Dec-17 18:50 46.802917 -122.718300 34 11998ft 338kts
01-Dec-17 18:51 46.870624 -122.638588 34 12042ft 328kts
01-Dec-17 18:52 46.936661 -122.564492 24 12000ft 322kts
01-Dec-17 18:53 47.007617 -122.531490 10 12011ft 321kts
01-Dec-17 18:54 47.081183 -122.500228 4 11746ft 321kts
01-Dec-17 18:55 47.154029 -122.486697 1 10480ft 310kts
01-Dec-17 18:56 47.223114 -122.475194 1 9669ft 307kts
01-Dec-17 18:57 47.286747 -122.465476 1 8732ft 290kts
01-Dec-17 18:58 47.350333 -122.455794 0 7970ft 279kts
01-Dec-17 18:59 47.420325 -122.455451 356 7146ft 273kts
01-Dec-17 19:00 47.486138 -122.455520 356 6534ft 259kts
01-Dec-17 19:01 47.549441 -122.457217 355 5452ft 251kts
01-Dec-17 19:02 47.609548 -122.459900 355 4728ft 240kts
01-Dec-17 19:03 47.672143 -122.463714 356 3969ft 234kts
01-Dec-17 19:04 47.706360 -122.415888 94 4047ft 192kts
01-Dec-17 19:05 47.700149 -122.351795 141 3977ft 174kts
01-Dec-17 19:06 47.668252 -122.314223 145 4003ft 176kts
01-Dec-17 19:07 47.626542 -122.303172 184 3618ft 153kts
01-Dec-17 19:08 47.591231 -122.306805 181 2978ft 138kts
01-Dec-17 19:09 47.558096 -122.306987 179 2300ft 129kts
01-Dec-17 19:10 47.532074 -122.307137 180 1794ft 127kts
01-Dec-17 19:11 47.495257 -122.307448 179 1078ft 125kts
01-Dec-17 19:12 47.470125 -122.307739 180 601ft 124kts
01-Dec-17 19:13 47.450218 -122.307441 128 408ft 19kts
01-Dec-17 19:14 47.446647 -122.306292 180 395ft 22kts
01-Dec-17 19:15 47.442384 -122.306349 180 382ft 19kts
01-Dec-17 19:16 47.439897 -122.305207 89 374ft 8kts
01-Dec-17 19:17 47.439972 -122.303150 65 378ft 5kts
01-Dec-17 19:18 47.440128 -122.300680 135 378ft 6kts
01-Dec-17 19:19 47.440369 -122.299295 45 376ft 0kts
01-Dec-17 19:20 47.440376 -122.299284 45 376ft 0kts

Navigation Log

Ident Type
Flight plan parsing failed, navigation log unavailable